KFMY/FMY METAR and TAF weather

Enter ICAO airport designator
Station Type Date Time Source
KFMY METAR 2020/02/22 06:53 UTC NOAA

KFMY 220653Z AUTO 02011KT 10SM BKN060 OVC080 09/04 A3021 RMK AO2 SLP233 T00940044


Station Type Date Time Source
KFMY Decoded METAR 2020/02/22 06:53 UTC NOAA

FORT MYERS PAGE FIELD, FL, United States (KFMY) 26-35N 081-52W 4M
Feb 22, 2020 - 01:53 AM EST / 2020.02.22 0653 UTC
Wind: from the NNE (020 degrees) at 13 MPH (11 KT):0
Visibility: 10 mile(s):0
Sky conditions: overcast
Temperature: 48.9 F (9.4 C)
Dew Point: 39.9 F (4.4 C)
Relative Humidity: 70%
Pressure (altimeter): 30.21 in. Hg (1023 hPa)
ob: KFMY 220653Z AUTO 02011KT 10SM BKN060 OVC080 09/04 A3021 RMK AO2 SLP233 T00940044
cycle: 7

Station Type Date Time Source
KFMY TAF 2020/02/22 06:36 UTC NOAA

TAF KFMY 220534Z 2206/2306 02014G21KT P6SM SCT060
FM221800 04015G21KT P6SM SCT035
FM230100 04010KT P6SM FEW030

Example: see airport list